createdAt,value
2023-04-06T00:00:55.270Z,-7.88
2023-04-06T00:03:24.480Z,-7.74
2023-04-06T00:05:53.981Z,-7.53
2023-04-06T00:08:23.850Z,-7.24
2023-04-06T00:10:52.767Z,-6.97
2023-04-06T00:13:22.112Z,-6.62
2023-04-06T00:15:51.017Z,-6.29
2023-04-06T00:18:21.103Z,-5.98
2023-04-06T00:20:49.844Z,-5.73
2023-04-06T00:23:18.767Z,-5.46
2023-04-06T00:25:47.521Z,-5.22
2023-04-06T00:28:16.538Z,-5.00
2023-04-06T00:30:45.540Z,-4.83
2023-04-06T00:33:14.366Z,-4.60
2023-04-06T00:35:43.231Z,-4.42
2023-04-06T00:38:12.316Z,-4.19
2023-04-06T00:40:41.283Z,-3.93
2023-04-06T00:43:12.997Z,-3.75
2023-04-06T00:45:42.869Z,-3.55
2023-04-06T00:48:11.733Z,-3.48
2023-04-06T00:50:40.492Z,-3.39
2023-04-06T00:53:09.293Z,-3.28
2023-04-06T00:55:38.116Z,-3.12
2023-04-06T00:58:07.309Z,-2.85
2023-04-06T01:00:46.638Z,-2.61
2023-04-06T01:03:19.843Z,-2.46
2023-04-06T01:05:49.436Z,-1.91
2023-04-06T01:08:27.111Z,-1.17
2023-04-06T01:11:07.004Z,-0.37
2023-04-06T01:13:35.864Z,0.56
2023-04-06T01:16:07.520Z,1.43
2023-04-06T01:18:58.761Z,2.54
2023-04-06T01:21:31.965Z,3.10
2023-04-06T01:24:32.675Z,3.65
2023-04-06T01:27:20.129Z,3.64
2023-04-06T01:30:24.413Z,3.10
2023-04-06T01:32:58.428Z,2.48
2023-04-06T01:35:38.995Z,2.65
2023-04-06T01:38:15.526Z,3.09
2023-04-06T01:40:46.310Z,3.31
2023-04-06T01:43:15.301Z,4.13
2023-04-06T01:45:58.995Z,5.35
2023-04-06T01:48:33.857Z,6.13
2023-04-06T01:51:08.809Z,6.58
2023-04-06T01:53:45.602Z,7.25
2023-04-06T01:56:14.690Z,7.40
2023-04-06T01:58:49.546Z,7.57
2023-04-06T02:01:20.767Z,7.69
2023-04-06T02:03:56.281Z,8.09
2023-04-06T02:06:26.915Z,8.74
2023-04-06T02:08:56.007Z,9.18
2023-04-06T02:11:25.251Z,9.27
2023-04-06T02:13:58.110Z,9.17
2023-04-06T02:16:52.075Z,10.06
2023-04-06T02:19:46.206Z,10.38
2023-04-06T02:22:15.327Z,10.26
2023-04-06T02:24:44.145Z,10.57
2023-04-06T02:27:13.024Z,10.82
2023-04-06T02:29:42.028Z,11.17
2023-04-06T02:32:11.109Z,11.81
2023-04-06T02:34:40.050Z,12.41
2023-04-06T02:37:08.950Z,12.93
2023-04-06T02:39:38.845Z,12.51
2023-04-06T02:42:10.661Z,11.83
2023-04-06T02:44:39.840Z,11.74
2023-04-06T02:47:10.825Z,11.61
2023-04-06T02:49:41.627Z,12.11
2023-04-06T02:52:11.546Z,11.95
2023-04-06T02:54:40.396Z,11.14
2023-04-06T02:57:10.431Z,11.11
2023-04-06T02:59:43.810Z,10.15
2023-04-06T03:02:19.587Z,10.08
2023-04-06T03:04:49.267Z,10.52
2023-04-06T03:07:27.059Z,10.60
2023-04-06T03:09:56.832Z,10.48
2023-04-06T03:12:25.564Z,11.45
2023-04-06T03:15:12.919Z,12.15
2023-04-06T03:17:46.570Z,12.39
2023-04-06T03:20:31.629Z,12.66
2023-04-06T03:23:00.983Z,12.30
2023-04-06T03:25:33.194Z,12.41
2023-04-06T03:28:06.035Z,12.96
2023-04-06T03:30:39.848Z,13.68
2023-04-06T03:33:08.944Z,13.93
2023-04-06T03:35:45.821Z,13.86
2023-04-06T03:38:15.057Z,13.82
2023-04-06T03:40:44.325Z,13.67
2023-04-06T03:43:13.248Z,13.64
2023-04-06T03:45:42.612Z,13.18
2023-04-06T03:48:11.563Z,12.54
2023-04-06T03:50:41.146Z,13.00
2023-04-06T03:53:10.325Z,13.38
2023-04-06T03:55:39.188Z,12.56
2023-04-06T03:58:08.033Z,12.15
2023-04-06T04:00:37.729Z,11.86
2023-04-06T04:03:06.928Z,11.41
2023-04-06T04:05:35.942Z,11.17
2023-04-06T04:08:05.253Z,11.82
2023-04-06T04:10:34.779Z,12.29
2023-04-06T04:13:03.608Z,12.93
2023-04-06T04:15:32.913Z,13.09
2023-04-06T04:18:01.917Z,12.80
2023-04-06T04:20:30.782Z,12.81
2023-04-06T04:22:59.603Z,13.02
2023-04-06T04:25:29.474Z,13.61
2023-04-06T04:27:59.525Z,13.94
2023-04-06T04:30:28.473Z,14.28
2023-04-06T04:32:57.282Z,13.45
2023-04-06T04:35:26.934Z,13.19
2023-04-06T04:37:56.397Z,12.68
2023-04-06T04:40:25.321Z,12.65
2023-04-06T04:43:05.558Z,12.76
2023-04-06T04:45:36.591Z,11.94
2023-04-06T04:48:17.650Z,11.23
2023-04-06T04:50:54.268Z,10.80
2023-04-06T04:53:26.570Z,9.77
2023-04-06T04:56:01.638Z,9.86
2023-04-06T04:58:30.466Z,10.02
2023-04-06T05:01:02.606Z,10.70
2023-04-06T05:03:32.682Z,10.75
2023-04-06T05:06:06.779Z,11.30
2023-04-06T05:08:38.816Z,11.65
2023-04-06T05:11:07.897Z,11.87
2023-04-06T05:13:41.144Z,11.79
2023-04-06T05:16:15.753Z,11.69
2023-04-06T05:18:44.953Z,10.69
2023-04-06T05:21:14.981Z,9.74
2023-04-06T05:23:57.198Z,9.54
2023-04-06T05:26:26.873Z,9.70
2023-04-06T05:29:02.142Z,9.75
2023-04-06T05:31:34.759Z,8.99
2023-04-06T05:34:03.735Z,8.74
2023-04-06T05:36:35.925Z,8.48
2023-04-06T05:39:10.594Z,8.86
2023-04-06T05:41:46.854Z,9.37
2023-04-06T05:44:17.557Z,9.66
2023-04-06T05:46:51.411Z,9.39
2023-04-06T05:49:20.526Z,8.53
2023-04-06T05:51:49.401Z,9.12
2023-04-06T05:54:18.310Z,9.84
2023-04-06T05:56:47.611Z,9.84
2023-04-06T05:59:18.484Z,9.68
2023-04-06T06:01:49.520Z,9.70
2023-04-06T06:04:19.847Z,9.17
2023-04-06T06:06:50.426Z,9.13
2023-04-06T06:09:22.782Z,9.51
2023-04-06T06:12:02.241Z,10.08
2023-04-06T06:14:32.288Z,10.45
2023-04-06T06:17:01.069Z,10.87
2023-04-06T06:19:30.783Z,10.88
2023-04-06T06:22:04.205Z,10.43
2023-04-06T06:24:35.271Z,9.97
2023-04-06T06:27:04.202Z,10.37
2023-04-06T06:29:35.558Z,10.52
2023-04-06T06:32:04.707Z,10.17
2023-04-06T06:34:34.230Z,10.34
2023-04-06T06:37:07.700Z,11.20
2023-04-06T06:39:39.116Z,11.39
2023-04-06T06:42:07.997Z,11.38
2023-04-06T06:44:50.747Z,11.25
2023-04-06T06:47:19.795Z,11.33
2023-04-06T06:49:48.690Z,11.29
2023-04-06T06:52:17.735Z,11.28
2023-04-06T06:54:46.610Z,11.48
2023-04-06T06:57:15.372Z,11.89
2023-04-06T06:59:44.458Z,12.03
2023-04-06T07:02:14.354Z,12.31
2023-04-06T07:04:43.844Z,12.14
2023-04-06T07:07:12.998Z,12.21
2023-04-06T07:09:42.000Z,12.16
2023-04-06T07:12:10.932Z,12.10
2023-04-06T07:14:39.661Z,12.22
2023-04-06T07:17:08.751Z,11.75
2023-04-06T07:19:38.258Z,11.75
2023-04-06T07:22:07.845Z,11.99
2023-04-06T07:24:36.710Z,12.18
2023-04-06T07:27:05.541Z,12.38
2023-04-06T07:29:34.637Z,12.43
2023-04-06T07:32:03.951Z,11.97
2023-04-06T07:34:37.846Z,11.68
2023-04-06T07:37:07.401Z,11.53
2023-04-06T07:39:37.073Z,11.77
2023-04-06T07:42:06.932Z,12.06
2023-04-06T07:44:36.395Z,12.12
2023-04-06T07:47:06.108Z,12.06
2023-04-06T07:49:35.372Z,12.07
2023-04-06T07:52:05.650Z,12.32
2023-04-06T07:54:35.745Z,11.79
2023-04-06T07:57:04.698Z,11.05
2023-04-06T07:59:33.975Z,10.32
2023-04-06T08:02:03.322Z,9.65
2023-04-06T08:04:33.157Z,9.43
2023-04-06T08:07:01.946Z,9.69
2023-04-06T08:09:30.845Z,9.68
2023-04-06T08:12:00.391Z,9.18
2023-04-06T08:14:29.398Z,9.14
2023-04-06T08:16:58.497Z,9.62
2023-04-06T08:19:27.248Z,9.40
2023-04-06T08:21:56.232Z,8.76
2023-04-06T08:24:25.045Z,8.18
2023-04-06T08:26:54.629Z,7.50
2023-04-06T08:29:23.491Z,6.90
2023-04-06T08:31:52.286Z,6.28
2023-04-06T08:34:21.373Z,5.86
2023-04-06T08:36:50.252Z,5.50
2023-04-06T08:39:19.115Z,5.45
2023-04-06T08:41:49.520Z,5.25
2023-04-06T08:44:18.756Z,5.13
2023-04-06T08:46:48.038Z,4.87
2023-04-06T08:49:18.213Z,4.64
2023-04-06T08:51:47.990Z,4.69
2023-04-06T08:54:17.058Z,4.55
2023-04-06T08:56:46.581Z,4.43
2023-04-06T08:59:16.021Z,4.30
2023-04-06T09:01:47.742Z,4.15
2023-04-06T09:04:17.330Z,4.06
2023-04-06T09:06:46.759Z,4.04
2023-04-06T09:09:16.075Z,4.06
2023-04-06T09:11:53.488Z,3.91
2023-04-06T09:14:39.357Z,3.95
2023-04-06T09:17:08.235Z,3.86
2023-04-06T09:19:48.096Z,3.71
2023-04-06T09:22:17.233Z,3.64
2023-04-06T09:24:52.113Z,3.58
2023-04-06T09:27:32.982Z,3.57
2023-04-06T09:30:15.756Z,3.57
2023-04-06T09:32:53.521Z,3.51
2023-04-06T09:35:23.660Z,3.42
2023-04-06T09:37:53.427Z,3.34
2023-04-06T09:40:23.793Z,3.35
2023-04-06T09:42:58.907Z,3.24
2023-04-06T09:45:32.247Z,3.27
2023-04-06T09:48:02.402Z,3.26
2023-04-06T09:50:32.237Z,3.16
2023-04-06T09:53:03.124Z,3.13
2023-04-06T09:55:45.271Z,3.09
2023-04-06T09:58:27.791Z,3.05
2023-04-06T10:01:07.725Z,3.01
2023-04-06T10:03:52.284Z,3.00
2023-04-06T10:06:27.015Z,2.99
2023-04-06T10:08:58.020Z,3.06
2023-04-06T10:11:27.707Z,3.07
2023-04-06T10:13:57.255Z,3.08
2023-04-06T10:16:27.715Z,3.14
2023-04-06T10:19:03.071Z,3.13
2023-04-06T10:21:35.227Z,3.18
2023-04-06T10:24:08.838Z,3.06
2023-04-06T10:26:38.156Z,3.14
2023-04-06T10:29:07.429Z,3.10
2023-04-06T10:31:44.711Z,2.93
2023-04-06T10:34:14.066Z,2.76
2023-04-06T10:36:42.833Z,2.75
2023-04-06T10:39:11.657Z,2.81
2023-04-06T10:41:49.730Z,2.81
2023-04-06T10:44:27.764Z,2.79
2023-04-06T10:47:02.112Z,2.79
2023-04-06T10:49:30.967Z,2.72
2023-04-06T10:52:00.205Z,2.65
2023-04-06T10:54:30.084Z,2.46
2023-04-06T10:56:58.955Z,2.44
2023-04-06T10:59:30.712Z,2.42
2023-04-06T11:02:00.704Z,2.43
2023-04-06T11:04:29.794Z,2.45
2023-04-06T11:06:59.637Z,2.44
2023-04-06T11:09:36.801Z,2.40
2023-04-06T11:12:06.354Z,2.34
2023-04-06T11:14:35.096Z,2.34
2023-04-06T11:17:05.118Z,2.28
2023-04-06T11:19:35.032Z,2.21
2023-04-06T11:22:09.878Z,2.12
2023-04-06T11:24:38.761Z,2.03
2023-04-06T11:27:08.119Z,1.97
2023-04-06T11:29:39.594Z,1.96
2023-04-06T11:32:12.085Z,1.88
2023-04-06T11:34:42.484Z,1.77
2023-04-06T11:37:13.163Z,1.68
2023-04-06T11:39:48.563Z,1.57
2023-04-06T11:42:24.567Z,1.48
2023-04-06T11:44:56.702Z,1.41
2023-04-06T11:47:34.854Z,1.35
2023-04-06T11:50:11.356Z,1.26
2023-04-06T11:52:41.920Z,1.18
2023-04-06T11:55:20.827Z,1.10
2023-04-06T11:57:50.890Z,1.07
2023-04-06T12:00:22.308Z,1.01
2023-04-06T12:02:51.668Z,0.92
2023-04-06T12:05:20.853Z,0.87
2023-04-06T12:07:49.647Z,0.80
2023-04-06T12:10:18.404Z,0.77
2023-04-06T12:12:47.618Z,0.66
2023-04-06T12:15:16.702Z,0.61
2023-04-06T12:17:45.567Z,0.63
2023-04-06T12:20:25.715Z,0.55
2023-04-06T12:22:56.279Z,0.54
2023-04-06T12:25:25.182Z,0.49
2023-04-06T12:27:54.142Z,0.47
2023-04-06T12:30:23.222Z,0.46
2023-04-06T12:32:52.722Z,0.39
2023-04-06T12:35:22.514Z,0.33
2023-04-06T12:37:51.497Z,0.27
2023-04-06T12:40:20.753Z,0.22
2023-04-06T12:42:49.745Z,0.27
2023-04-06T12:45:19.216Z,0.16
2023-04-06T12:47:48.075Z,0.11
2023-04-06T12:50:16.936Z,0.11
2023-04-06T12:52:45.919Z,0.17
2023-04-06T12:55:15.505Z,0.19
2023-04-06T12:57:44.679Z,0.17
2023-04-06T13:00:14.615Z,0.16
2023-04-06T13:02:48.444Z,0.15
2023-04-06T13:05:20.364Z,0.09
2023-04-06T13:07:49.188Z,0.01
2023-04-06T13:10:18.092Z,-0.04
2023-04-06T13:12:47.240Z,-0.15
2023-04-06T13:15:16.712Z,-0.21
2023-04-06T13:17:45.868Z,-0.30
2023-04-06T13:20:14.623Z,-0.31
2023-04-06T13:22:43.410Z,-0.25
2023-04-06T13:25:12.215Z,-0.12
2023-04-06T13:27:41.194Z,-0.07
2023-04-06T13:30:10.948Z,-0.01
2023-04-06T13:32:39.718Z,0.09
2023-04-06T13:35:09.178Z,0.10
2023-04-06T13:37:37.906Z,0.10
2023-04-06T13:40:07.728Z,0.16
2023-04-06T13:42:45.846Z,0.29
2023-04-06T13:45:14.863Z,0.36
2023-04-06T13:47:43.751Z,0.36
2023-04-06T13:50:12.845Z,0.31
2023-04-06T13:52:41.686Z,0.25
2023-04-06T13:55:11.022Z,0.15
2023-04-06T13:57:40.969Z,-0.02
2023-04-06T14:00:13.569Z,-0.10
2023-04-06T14:02:43.492Z,-0.21
2023-04-06T14:05:12.644Z,-0.26
2023-04-06T14:07:42.326Z,-0.35
2023-04-06T14:10:15.590Z,-0.42
2023-04-06T14:12:46.212Z,-0.45
2023-04-06T14:15:15.245Z,-0.46
2023-04-06T14:17:44.161Z,-0.43
2023-04-06T14:20:15.714Z,-0.47
2023-04-06T14:22:44.582Z,-0.47
2023-04-06T14:25:14.150Z,-0.43
2023-04-06T14:27:43.822Z,-0.43
2023-04-06T14:30:13.241Z,-0.43
2023-04-06T14:32:42.464Z,-0.40
2023-04-06T14:35:12.256Z,-0.33
2023-04-06T14:37:40.985Z,-0.35
2023-04-06T14:40:11.227Z,-0.39
2023-04-06T14:42:40.277Z,-0.43
2023-04-06T14:45:09.464Z,-0.47
2023-04-06T14:47:38.321Z,-0.50
2023-04-06T14:50:07.802Z,-0.49
2023-04-06T14:52:36.604Z,-0.50
2023-04-06T14:55:06.095Z,-0.54
2023-04-06T14:57:35.433Z,-0.44
2023-04-06T15:00:04.931Z,-0.41
2023-04-06T15:02:35.097Z,-0.39
2023-04-06T15:05:05.065Z,-0.29
2023-04-06T15:07:33.908Z,-0.30
2023-04-06T15:10:02.741Z,-0.31
2023-04-06T15:12:33.849Z,-0.33
2023-04-06T15:15:02.651Z,-0.28
2023-04-06T15:17:31.858Z,-0.23
2023-04-06T15:20:00.770Z,-0.19
2023-04-06T15:22:31.262Z,-0.20
2023-04-06T15:25:00.147Z,-0.23
2023-04-06T15:27:29.041Z,-0.13
2023-04-06T15:29:59.962Z,-0.11
2023-04-06T15:32:28.905Z,-0.08
2023-04-06T15:35:01.563Z,-0.10
2023-04-06T15:37:31.683Z,-0.12
2023-04-06T15:40:01.904Z,-0.19
2023-04-06T15:42:32.096Z,-0.18
2023-04-06T15:45:00.846Z,-0.18
2023-04-06T15:47:31.742Z,-0.19
2023-04-06T15:50:00.624Z,-0.24
2023-04-06T15:52:29.623Z,-0.21
2023-04-06T15:54:58.905Z,-0.25
2023-04-06T15:57:27.974Z,-0.31
2023-04-06T15:59:56.885Z,-0.38
2023-04-06T16:02:27.460Z,-0.47
2023-04-06T16:04:57.718Z,-0.54
2023-04-06T16:07:32.229Z,-0.62
2023-04-06T16:10:05.432Z,-0.75
2023-04-06T16:12:34.613Z,-0.84
2023-04-06T16:15:03.459Z,-0.97
2023-04-06T16:17:32.296Z,-1.04
2023-04-06T16:20:01.119Z,-1.11
2023-04-06T16:22:30.110Z,-1.14
2023-04-06T16:24:58.949Z,-1.17
2023-04-06T16:27:28.431Z,-1.18
2023-04-06T16:29:57.192Z,-1.13
2023-04-06T16:32:26.106Z,-1.09
2023-04-06T16:34:55.081Z,-1.07
2023-04-06T16:37:23.986Z,-0.94
2023-04-06T16:39:53.281Z,-0.80
2023-04-06T16:42:22.303Z,-0.76
2023-04-06T16:44:51.100Z,-0.68
2023-04-06T16:47:19.876Z,-0.66
2023-04-06T16:49:48.680Z,-0.66
2023-04-06T16:52:17.437Z,-0.61
2023-04-06T16:54:46.434Z,-0.54
2023-04-06T16:57:15.823Z,-0.44
2023-04-06T16:59:44.640Z,-0.34
2023-04-06T17:02:14.639Z,-0.22
2023-04-06T17:04:43.817Z,-0.11
2023-04-06T17:07:12.783Z,-0.07
2023-04-06T17:09:42.323Z,-0.02
2023-04-06T17:12:11.232Z,0.02
2023-04-06T17:14:40.246Z,0.07
2023-04-06T17:17:09.426Z,0.13
2023-04-06T17:19:38.399Z,0.17
2023-04-06T17:22:07.336Z,0.18
2023-04-06T17:24:36.062Z,0.25
2023-04-06T17:27:05.039Z,0.27
2023-04-06T17:29:36.856Z,0.35
2023-04-06T17:32:06.586Z,0.38
2023-04-06T17:34:35.681Z,0.44
2023-04-06T17:37:04.562Z,0.48
2023-04-06T17:39:33.409Z,0.57
2023-04-06T17:42:05.388Z,0.59
2023-04-06T17:44:34.625Z,0.60
2023-04-06T17:47:03.397Z,0.64
2023-04-06T17:49:32.238Z,0.63
2023-04-06T17:52:01.118Z,0.71
2023-04-06T17:54:29.824Z,0.71
2023-04-06T17:56:59.077Z,0.73
2023-04-06T17:59:28.186Z,0.74
2023-04-06T18:01:57.964Z,0.77
2023-04-06T18:04:27.298Z,0.79
2023-04-06T18:06:56.550Z,0.86
2023-04-06T18:11:59.226Z,0.86
2023-04-06T18:14:27.972Z,0.89
2023-04-06T18:16:57.213Z,0.96
2023-04-06T18:19:27.690Z,1.00
2023-04-06T18:21:56.564Z,0.98
2023-04-06T18:24:40.453Z,0.98
2023-04-06T18:27:11.521Z,0.99
2023-04-06T18:29:41.215Z,1.07
2023-04-06T18:32:10.139Z,1.10
2023-04-06T18:34:39.999Z,1.13
2023-04-06T18:37:08.871Z,1.13
2023-04-06T18:39:37.763Z,1.12
2023-04-06T18:42:06.591Z,1.13
2023-04-06T18:44:35.371Z,1.10
2023-04-06T18:47:04.295Z,1.07
2023-04-06T18:49:33.968Z,1.09
2023-04-06T18:52:03.753Z,1.06
2023-04-06T18:54:32.556Z,1.06
2023-04-06T18:57:02.332Z,1.06
2023-04-06T18:59:31.210Z,1.06
2023-04-06T19:02:00.620Z,1.06
2023-04-06T19:04:31.196Z,1.03
2023-04-06T19:07:01.294Z,1.00
2023-04-06T19:09:30.049Z,1.04
2023-04-06T19:11:58.895Z,1.10
2023-04-06T19:14:32.401Z,1.12
2023-04-06T19:17:01.287Z,1.13
2023-04-06T19:19:30.240Z,1.10
2023-04-06T19:22:02.042Z,1.11
2023-04-06T19:24:30.814Z,1.14
2023-04-06T19:26:59.927Z,1.13
2023-04-06T19:29:28.718Z,1.11
2023-04-06T19:31:57.448Z,1.12
2023-04-06T19:34:26.517Z,1.16
2023-04-06T19:36:55.821Z,1.17
2023-04-06T19:39:24.649Z,1.16
2023-04-06T19:41:53.538Z,1.18
2023-04-06T19:44:22.359Z,1.23
2023-04-06T19:46:51.275Z,1.27
2023-04-06T19:49:20.286Z,1.30
2023-04-06T19:51:49.037Z,1.36
2023-04-06T19:54:17.776Z,1.39
2023-04-06T19:56:48.513Z,1.42
2023-04-06T19:59:18.569Z,1.46
2023-04-06T20:01:48.038Z,1.47
2023-04-06T20:04:17.731Z,1.54
2023-04-06T20:06:46.971Z,1.55
2023-04-06T20:09:17.510Z,1.60
2023-04-06T20:11:46.420Z,1.62
2023-04-06T20:14:16.098Z,1.66
2023-04-06T20:16:44.906Z,1.67
2023-04-06T20:19:13.657Z,1.65
2023-04-06T20:21:44.385Z,1.74
2023-04-06T20:24:13.378Z,1.79
2023-04-06T20:26:42.448Z,1.81
2023-04-06T20:29:11.360Z,1.89
2023-04-06T20:31:40.239Z,1.92
2023-04-06T20:34:08.989Z,1.95
2023-04-06T20:36:37.836Z,2.01
2023-04-06T20:39:07.623Z,2.08
2023-04-06T20:41:36.557Z,2.14
2023-04-06T20:44:05.384Z,2.22
2023-04-06T20:46:34.082Z,2.24
2023-04-06T20:49:04.274Z,2.30
2023-04-06T20:51:33.389Z,2.34
2023-04-06T20:54:02.353Z,2.38
2023-04-06T20:56:31.391Z,2.42
2023-04-06T20:59:01.127Z,2.40
2023-04-06T21:01:31.456Z,2.36
2023-04-06T21:04:02.584Z,2.40
2023-04-06T21:06:33.036Z,2.40
2023-04-06T21:09:02.305Z,2.39
2023-04-06T21:11:42.871Z,2.35
2023-04-06T21:14:11.657Z,2.34
2023-04-06T21:16:40.474Z,2.36
2023-04-06T21:19:09.341Z,2.43
2023-04-06T21:21:38.102Z,2.41
2023-04-06T21:24:07.147Z,2.39
2023-04-06T21:26:37.362Z,2.38
2023-04-06T21:29:06.310Z,2.35
2023-04-06T21:31:42.347Z,2.28
2023-04-06T21:34:15.355Z,2.20
2023-04-06T21:36:44.335Z,2.16
2023-04-06T21:39:13.225Z,2.16
2023-04-06T21:41:42.160Z,2.12
2023-04-06T21:44:10.938Z,2.10
2023-04-06T21:46:39.797Z,2.10
2023-04-06T21:49:08.620Z,2.05
2023-04-06T21:51:37.594Z,1.99
2023-04-06T21:54:06.388Z,1.96
2023-04-06T21:56:35.124Z,1.95
2023-04-06T21:59:03.929Z,1.89
2023-04-06T22:01:33.730Z,1.88
2023-04-06T22:04:03.211Z,1.81
2023-04-06T22:06:32.248Z,1.78
2023-04-06T22:09:02.448Z,1.78
2023-04-06T22:11:31.390Z,1.76
2023-04-06T22:14:00.570Z,1.68
2023-04-06T22:16:29.525Z,1.65
2023-04-06T22:18:58.610Z,1.58
2023-04-06T22:21:27.924Z,1.58
2023-04-06T22:23:56.814Z,1.54
2023-04-06T22:26:25.659Z,1.51
2023-04-06T22:28:54.536Z,1.44
2023-04-06T22:31:23.372Z,1.42
2023-04-06T22:33:52.394Z,1.33
2023-04-06T22:36:21.592Z,1.29
2023-04-06T22:38:51.407Z,1.20
2023-04-06T22:41:20.225Z,1.08
2023-04-06T22:43:48.918Z,0.89
2023-04-06T22:46:17.933Z,0.74
2023-04-06T22:48:46.797Z,0.61
2023-04-06T22:51:15.581Z,0.46
2023-04-06T22:53:44.441Z,0.31
2023-04-06T22:56:13.308Z,0.28
2023-04-06T22:58:42.140Z,0.25
2023-04-06T23:01:12.711Z,0.23
2023-04-06T23:03:42.131Z,0.26
2023-04-06T23:06:11.051Z,0.26
2023-04-06T23:08:39.854Z,0.29
2023-04-06T23:11:08.608Z,0.29
2023-04-06T23:13:37.344Z,0.33
2023-04-06T23:16:08.624Z,0.36
2023-04-06T23:18:37.394Z,0.43
2023-04-06T23:21:09.351Z,0.47
2023-04-06T23:23:38.184Z,0.54
2023-04-06T23:26:06.989Z,0.62
2023-04-06T23:28:35.743Z,0.71
2023-04-06T23:31:04.576Z,0.81
2023-04-06T23:33:33.434Z,0.94
2023-04-06T23:36:02.456Z,1.12
2023-04-06T23:38:31.561Z,1.33
2023-04-06T23:41:00.280Z,1.56
2023-04-06T23:43:29.083Z,1.75
2023-04-06T23:45:57.897Z,1.97
2023-04-06T23:48:26.848Z,2.15
2023-04-06T23:50:55.764Z,2.37
2023-04-06T23:53:24.558Z,2.54
2023-04-06T23:55:53.363Z,2.65
2023-04-06T23:58:22.161Z,2.71
